createdAt,value
2022-11-22T00:00:38.348Z,87.96
2022-11-22T00:01:38.372Z,88.17
2022-11-22T00:02:38.326Z,88.20
2022-11-22T00:03:38.305Z,88.20
2022-11-22T00:04:38.344Z,88.20
2022-11-22T00:05:38.307Z,88.20
2022-11-22T00:06:38.275Z,88.20
2022-11-22T00:07:38.412Z,88.31
2022-11-22T00:08:38.258Z,88.20
2022-11-22T00:09:38.250Z,88.51
2022-11-22T00:10:38.235Z,88.51
2022-11-22T00:11:38.227Z,88.62
2022-11-22T00:12:38.227Z,88.62
2022-11-22T00:13:38.197Z,88.62
2022-11-22T00:14:38.209Z,88.41
2022-11-22T00:15:38.167Z,88.41
2022-11-22T00:16:38.177Z,88.62
2022-11-22T00:17:38.157Z,88.72
2022-11-22T00:18:38.150Z,88.62
2022-11-22T00:19:38.149Z,88.51
2022-11-22T00:20:38.129Z,88.72
2022-11-22T00:21:38.107Z,88.72
2022-11-22T00:22:44.030Z,88.82
2022-11-22T00:23:39.098Z,88.92
2022-11-22T00:24:38.108Z,88.92
2022-11-22T00:25:38.069Z,88.82
2022-11-22T00:26:38.078Z,88.72
2022-11-22T00:27:38.043Z,88.72
2022-11-22T00:28:38.039Z,88.72
2022-11-22T00:29:38.033Z,88.92
2022-11-22T00:30:38.009Z,88.92
2022-11-22T00:31:38.001Z,89.23
2022-11-22T00:32:37.993Z,89.54
2022-11-22T00:33:38.032Z,89.95
2022-11-22T00:34:37.980Z,90.37
2022-11-22T00:35:37.981Z,90.57
2022-11-22T00:36:37.950Z,90.88
2022-11-22T00:37:37.953Z,91.09
2022-11-22T00:38:37.960Z,91.09
2022-11-22T00:39:37.920Z,91.19
2022-11-22T00:40:37.920Z,91.30
2022-11-22T00:41:37.915Z,91.40
2022-11-22T00:42:37.881Z,91.54
2022-11-22T00:43:37.881Z,91.64
2022-11-22T00:44:37.874Z,91.75
2022-11-22T00:45:37.851Z,91.64
2022-11-22T00:46:37.843Z,91.85
2022-11-22T00:47:37.822Z,91.85
2022-11-22T00:48:37.830Z,91.85
2022-11-22T00:49:37.802Z,91.64
2022-11-22T00:50:37.803Z,91.54
2022-11-22T00:51:37.806Z,91.54
2022-11-22T00:52:37.773Z,91.75
2022-11-22T00:53:37.772Z,91.85
2022-11-22T00:54:37.743Z,91.85
2022-11-22T00:55:37.754Z,91.75
2022-11-22T00:56:37.736Z,91.64
2022-11-22T00:57:37.715Z,91.75
2022-11-22T00:58:37.723Z,91.54
2022-11-22T00:59:37.704Z,91.64
2022-11-22T01:00:37.774Z,91.75
2022-11-22T01:01:37.747Z,91.75
2022-11-22T01:02:37.664Z,91.96
2022-11-22T01:03:37.667Z,92.06
2022-11-22T01:04:37.645Z,92.16
2022-11-22T01:05:37.624Z,92.27
2022-11-22T01:06:37.623Z,92.27
2022-11-22T01:07:37.647Z,92.47
2022-11-22T01:08:37.616Z,92.47
2022-11-22T01:09:37.575Z,92.51
2022-11-22T01:10:37.606Z,92.51
2022-11-22T01:11:37.584Z,92.61
2022-11-22T01:12:37.546Z,92.61
2022-11-22T01:13:37.578Z,92.72
2022-11-22T01:14:37.533Z,92.82
2022-11-22T01:15:37.517Z,92.82
2022-11-22T01:16:37.514Z,92.93
2022-11-22T01:17:37.513Z,93.03
2022-11-22T01:18:37.496Z,93.24
2022-11-22T01:19:37.485Z,93.44
2022-11-22T01:20:37.466Z,93.34
2022-11-22T01:21:37.456Z,93.54
2022-11-22T01:22:37.523Z,93.65
2022-11-22T01:23:37.477Z,93.75
2022-11-22T01:24:37.418Z,94.00
2022-11-22T01:25:37.416Z,94.00
2022-11-22T01:26:37.400Z,93.90
2022-11-22T01:27:37.387Z,94.10
2022-11-22T01:28:37.385Z,94.42
2022-11-22T01:29:37.381Z,94.42
2022-11-22T01:30:37.548Z,94.52
2022-11-22T01:31:37.347Z,94.52
2022-11-22T01:32:37.381Z,94.62
2022-11-22T01:33:37.339Z,94.62
2022-11-22T01:34:37.309Z,94.52
2022-11-22T01:35:37.309Z,94.42
2022-11-22T01:36:37.287Z,94.42
2022-11-22T01:37:37.287Z,94.42
2022-11-22T01:38:37.291Z,94.52
2022-11-22T01:39:37.257Z,94.42
2022-11-22T01:40:37.299Z,94.42
2022-11-22T01:41:37.239Z,94.52
2022-11-22T01:42:37.219Z,94.52
2022-11-22T01:43:37.220Z,94.52
2022-11-22T01:44:37.218Z,94.72
2022-11-22T01:45:37.193Z,94.62
2022-11-22T01:46:37.178Z,94.72
2022-11-22T01:47:37.169Z,94.62
2022-11-22T01:48:37.158Z,94.67
2022-11-22T01:49:37.162Z,94.56
2022-11-22T01:50:37.149Z,94.77
2022-11-22T01:51:37.131Z,94.87
2022-11-22T01:52:37.110Z,94.87
2022-11-22T01:53:37.111Z,95.18
2022-11-22T01:54:37.100Z,95.28
2022-11-22T01:55:37.100Z,95.39
2022-11-22T01:56:37.078Z,95.59
2022-11-22T01:57:37.073Z,95.59
2022-11-22T01:58:37.057Z,95.59
2022-11-22T01:59:37.064Z,95.64
2022-11-22T02:00:37.020Z,95.53
2022-11-22T02:01:37.070Z,95.74
2022-11-22T02:02:37.005Z,95.95
2022-11-22T02:03:37.004Z,95.84
2022-11-22T02:04:37.005Z,96.05
2022-11-22T02:05:36.972Z,96.05
2022-11-22T02:06:36.961Z,96.05
2022-11-22T02:07:37.032Z,95.95
2022-11-22T02:08:36.940Z,95.95
2022-11-22T02:09:36.944Z,95.74
2022-11-22T02:10:36.926Z,95.84
2022-11-22T02:11:36.932Z,95.95
2022-11-22T02:12:36.896Z,96.15
2022-11-22T02:13:36.892Z,96.15
2022-11-22T02:14:36.904Z,96.26
2022-11-22T02:15:36.861Z,96.36
2022-11-22T02:16:36.853Z,96.36
2022-11-22T02:17:36.843Z,96.26
2022-11-22T02:18:36.823Z,96.20
2022-11-22T02:19:36.843Z,96.30
2022-11-22T02:20:36.810Z,96.30
2022-11-22T02:21:36.794Z,96.41
2022-11-22T02:22:36.787Z,96.41
2022-11-22T02:23:36.793Z,96.51
2022-11-22T02:24:36.803Z,96.61
2022-11-22T02:25:36.755Z,96.61
2022-11-22T02:26:36.745Z,96.30
2022-11-22T02:27:36.754Z,96.09
2022-11-22T02:28:36.737Z,96.41
2022-11-22T02:29:36.746Z,96.66
2022-11-22T02:30:36.713Z,96.55
2022-11-22T02:31:36.694Z,96.34
2022-11-22T02:32:36.675Z,96.34
2022-11-22T02:33:36.669Z,96.55
2022-11-22T02:34:36.675Z,96.55
2022-11-22T02:35:36.658Z,96.45
2022-11-22T02:36:36.641Z,96.29
2022-11-22T02:37:36.639Z,96.39
2022-11-22T02:38:36.606Z,96.39
2022-11-22T02:39:36.615Z,96.29
2022-11-22T02:40:36.603Z,96.08
2022-11-22T02:41:36.665Z,96.08
2022-11-22T02:42:36.576Z,96.70
2022-11-22T02:43:36.559Z,97.11
2022-11-22T02:44:36.586Z,97.32
2022-11-22T02:45:36.554Z,97.22
2022-11-22T02:46:36.537Z,97.16
2022-11-22T02:47:36.519Z,97.53
2022-11-22T02:48:36.505Z,97.53
2022-11-22T02:49:36.516Z,97.63
2022-11-22T02:50:36.487Z,97.53
2022-11-22T02:51:36.497Z,97.53
2022-11-22T02:52:36.466Z,97.53
2022-11-22T02:53:36.457Z,97.36
2022-11-22T02:54:36.461Z,97.26
2022-11-22T02:55:36.430Z,97.36
2022-11-22T02:56:36.429Z,97.57
2022-11-22T02:57:36.408Z,97.47
2022-11-22T02:58:36.397Z,97.26
2022-11-22T02:59:36.413Z,97.06
2022-11-22T03:00:36.465Z,96.95
2022-11-22T03:01:36.453Z,96.85
2022-11-22T03:02:36.357Z,96.79
2022-11-22T03:03:36.368Z,96.85
2022-11-22T03:04:36.340Z,97.47
2022-11-22T03:05:36.327Z,97.57
2022-11-22T03:06:36.317Z,97.63
2022-11-22T03:07:36.419Z,97.63
2022-11-22T03:08:36.300Z,97.53
2022-11-22T03:09:36.285Z,97.32
2022-11-22T03:10:36.269Z,97.22
2022-11-22T03:11:36.249Z,97.17
2022-11-22T03:12:36.248Z,97.07
2022-11-22T03:13:36.231Z,97.07
2022-11-22T03:14:36.300Z,96.97
2022-11-22T03:15:36.208Z,96.76
2022-11-22T03:16:36.200Z,96.51
2022-11-22T03:17:36.190Z,96.30
2022-11-22T03:18:36.190Z,95.84
2022-11-22T03:19:36.179Z,95.43
2022-11-22T03:20:36.170Z,95.22
2022-11-22T03:21:36.142Z,95.12
2022-11-22T03:22:36.143Z,95.17
2022-11-22T03:23:36.145Z,95.37
2022-11-22T03:24:36.131Z,95.37
2022-11-22T03:25:36.099Z,95.27
2022-11-22T03:26:36.100Z,95.12
2022-11-22T03:27:36.082Z,95.02
2022-11-22T03:28:36.078Z,94.71
2022-11-22T03:29:36.081Z,94.50
2022-11-22T03:30:36.061Z,94.40
2022-11-22T03:31:36.049Z,94.04
2022-11-22T03:32:36.050Z,93.84
2022-11-22T03:33:36.014Z,93.73
2022-11-22T03:34:36.021Z,93.53
2022-11-22T03:35:35.993Z,93.53
2022-11-22T03:36:35.998Z,93.53
2022-11-22T03:37:35.972Z,93.43
2022-11-22T03:38:35.962Z,93.32
2022-11-22T03:39:35.982Z,93.22
2022-11-22T03:40:35.950Z,93.37
2022-11-22T03:41:35.921Z,93.47
2022-11-22T03:42:35.925Z,93.57
2022-11-22T03:43:35.903Z,93.68
2022-11-22T03:44:35.912Z,93.68
2022-11-22T03:45:35.881Z,93.78
2022-11-22T03:46:35.888Z,93.88
2022-11-22T03:47:35.872Z,93.78
2022-11-22T03:48:35.852Z,93.57
2022-11-22T03:49:35.846Z,93.26
2022-11-22T03:50:35.844Z,93.16
2022-11-22T03:51:35.819Z,93.16
2022-11-22T03:52:35.820Z,93.16
2022-11-22T03:53:35.805Z,93.16
2022-11-22T03:54:35.802Z,93.26
2022-11-22T03:55:35.773Z,93.41
2022-11-22T03:56:35.766Z,93.41
2022-11-22T03:57:35.747Z,93.51
2022-11-22T03:58:35.755Z,93.41
2022-11-22T03:59:35.761Z,93.37
2022-11-22T04:00:35.717Z,93.37
2022-11-22T04:01:35.751Z,93.26
2022-11-22T04:02:35.694Z,93.16
2022-11-22T04:03:35.685Z,92.95
2022-11-22T04:04:35.694Z,92.54
2022-11-22T04:05:35.674Z,92.19
2022-11-22T04:06:35.653Z,92.02
2022-11-22T04:07:35.695Z,91.92
2022-11-22T04:08:35.677Z,91.92
2022-11-22T04:09:35.657Z,91.82
2022-11-22T04:10:35.628Z,91.92
2022-11-22T04:11:35.616Z,91.82
2022-11-22T04:12:35.593Z,91.92
2022-11-22T04:13:35.575Z,92.02
2022-11-22T04:14:35.573Z,91.92
2022-11-22T04:15:35.567Z,91.82
2022-11-22T04:16:35.546Z,91.71
2022-11-22T04:17:35.541Z,91.71
2022-11-22T04:18:35.543Z,91.82
2022-11-22T04:19:35.521Z,91.92
2022-11-22T04:20:35.515Z,92.02
2022-11-22T04:21:35.494Z,92.17
2022-11-22T04:22:35.483Z,92.48
2022-11-22T04:23:35.468Z,92.48
2022-11-22T04:24:35.455Z,92.48
2022-11-22T04:25:35.471Z,92.58
2022-11-22T04:26:35.437Z,92.48
2022-11-22T04:27:35.417Z,92.58
2022-11-22T04:29:01.857Z,92.48
2022-11-22T04:29:36.458Z,92.48
2022-11-22T04:30:35.397Z,92.38
2022-11-22T04:31:35.386Z,92.42
2022-11-22T04:32:35.377Z,92.52
2022-11-22T04:33:35.356Z,92.52
2022-11-22T04:34:35.347Z,92.52
2022-11-22T04:35:35.346Z,92.52
2022-11-22T04:36:35.327Z,92.52
2022-11-22T04:37:35.318Z,92.58
2022-11-22T04:38:35.308Z,92.17
2022-11-22T04:39:35.288Z,91.86
2022-11-22T04:40:35.297Z,91.86
2022-11-22T04:41:35.267Z,91.96
2022-11-22T04:42:35.267Z,92.07
2022-11-22T04:43:35.248Z,92.07
2022-11-22T04:44:35.243Z,92.07
2022-11-22T04:45:35.272Z,92.17
2022-11-22T04:46:35.219Z,92.21
2022-11-22T04:47:35.207Z,92.21
2022-11-22T04:48:35.198Z,92.52
2022-11-22T04:49:35.180Z,92.93
2022-11-22T04:50:35.188Z,93.04
2022-11-22T04:51:35.158Z,93.24
2022-11-22T04:52:35.167Z,93.24
2022-11-22T04:53:35.148Z,93.35
2022-11-22T04:54:35.129Z,93.55
2022-11-22T04:55:35.131Z,93.66
2022-11-22T04:56:35.109Z,93.66
2022-11-22T04:57:35.088Z,93.55
2022-11-22T04:58:35.090Z,93.35
2022-11-22T04:59:35.071Z,93.55
2022-11-22T05:00:35.129Z,93.66
2022-11-22T05:01:35.078Z,93.24
2022-11-22T05:02:35.049Z,92.93
2022-11-22T05:03:35.039Z,92.93
2022-11-22T05:04:35.038Z,92.83
2022-11-22T05:05:35.032Z,92.93
2022-11-22T05:06:35.020Z,93.04
2022-11-22T05:07:35.050Z,92.83
2022-11-22T05:08:34.993Z,92.72
2022-11-22T05:09:34.968Z,92.72
2022-11-22T05:10:34.970Z,92.63
2022-11-22T05:11:34.958Z,92.72
2022-11-22T05:12:34.931Z,92.72
2022-11-22T05:13:34.958Z,92.72
2022-11-22T05:14:34.921Z,92.52
2022-11-22T05:15:34.910Z,92.63
2022-11-22T05:16:34.892Z,92.52
2022-11-22T05:17:34.880Z,92.52
2022-11-22T05:18:34.871Z,92.21
2022-11-22T05:19:34.852Z,91.90
2022-11-22T05:20:34.860Z,91.80
2022-11-22T05:21:34.833Z,91.80
2022-11-22T05:22:34.832Z,91.90
2022-11-22T05:23:34.823Z,91.90
2022-11-22T05:24:34.802Z,91.90
2022-11-22T05:25:34.834Z,92.00
2022-11-22T05:26:34.783Z,92.11
2022-11-22T05:27:34.762Z,92.15
2022-11-22T05:28:34.763Z,92.15
2022-11-22T05:29:34.753Z,92.25
2022-11-22T05:30:34.753Z,92.36
2022-11-22T05:31:34.733Z,92.46
2022-11-22T05:32:34.732Z,92.57
2022-11-22T05:33:34.783Z,92.61
2022-11-22T05:34:34.701Z,92.71
2022-11-22T05:35:34.693Z,92.71
2022-11-22T05:36:34.692Z,92.91
2022-11-22T05:37:34.664Z,93.02
2022-11-22T05:38:34.695Z,93.33
2022-11-22T05:39:34.635Z,93.64
2022-11-22T05:40:34.652Z,93.74
2022-11-22T05:41:34.707Z,93.74
2022-11-22T05:42:34.625Z,93.74
2022-11-22T05:43:34.815Z,93.68
2022-11-22T05:44:34.588Z,93.74
2022-11-22T05:45:34.574Z,93.89
2022-11-22T05:46:34.565Z,93.85
2022-11-22T05:47:34.557Z,93.95
2022-11-22T05:48:34.545Z,94.06
2022-11-22T05:49:34.606Z,94.06
2022-11-22T05:50:34.538Z,94.06
2022-11-22T05:51:35.258Z,94.06
2022-11-22T05:52:34.505Z,94.16
2022-11-22T05:53:34.487Z,94.06
2022-11-22T05:54:34.486Z,94.06
2022-11-22T05:55:34.476Z,94.06
2022-11-22T05:56:34.455Z,94.20
2022-11-22T05:57:34.449Z,94.37
2022-11-22T05:58:34.437Z,94.26
2022-11-22T05:59:34.465Z,93.95
2022-11-22T06:00:34.425Z,93.95
2022-11-22T06:01:34.397Z,93.54
2022-11-22T06:02:34.486Z,93.43
2022-11-22T06:03:34.377Z,93.33
2022-11-22T06:04:34.398Z,93.23
2022-11-22T06:05:34.366Z,93.33
2022-11-22T06:06:34.346Z,93.33
2022-11-22T06:07:34.375Z,93.27
2022-11-22T06:08:34.327Z,93.48
2022-11-22T06:09:34.330Z,93.58
2022-11-22T06:10:34.320Z,93.48
2022-11-22T06:11:34.286Z,93.58
2022-11-22T06:12:34.315Z,93.48
2022-11-22T06:13:34.267Z,93.58
2022-11-22T06:14:38.466Z,93.52
2022-11-22T06:15:35.259Z,93.41
2022-11-22T06:16:34.287Z,93.21
2022-11-22T06:17:34.218Z,93.21
2022-11-22T06:18:34.207Z,93.35
2022-11-22T06:19:34.208Z,93.46
2022-11-22T06:20:34.220Z,93.46
2022-11-22T06:21:34.187Z,93.77
2022-11-22T06:22:34.177Z,93.98
2022-11-22T06:23:34.162Z,93.98
2022-11-22T06:24:34.227Z,93.98
2022-11-22T06:25:34.293Z,93.98
2022-11-22T06:26:39.026Z,93.98
2022-11-22T06:27:35.108Z,93.87
2022-11-22T06:28:34.117Z,93.87
2022-11-22T06:29:34.089Z,93.87
2022-11-22T06:30:34.080Z,94.12
2022-11-22T06:31:34.084Z,94.33
2022-11-22T06:32:34.069Z,94.54
2022-11-22T06:33:34.061Z,94.54
2022-11-22T06:34:34.060Z,94.54
2022-11-22T06:35:34.018Z,94.43
2022-11-22T06:36:34.087Z,94.33
2022-11-22T06:37:34.007Z,94.43
2022-11-22T06:38:33.997Z,94.74
2022-11-22T06:39:33.979Z,95.16
2022-11-22T06:40:33.976Z,95.68
2022-11-22T06:41:33.976Z,95.89
2022-11-22T06:42:33.972Z,95.99
2022-11-22T06:43:33.941Z,95.57
2022-11-22T06:44:33.931Z,95.43
2022-11-22T06:45:33.912Z,95.22
2022-11-22T06:46:33.995Z,95.12
2022-11-22T06:47:33.900Z,94.56
2022-11-22T06:48:33.880Z,93.93
2022-11-22T06:49:33.870Z,92.85
2022-11-22T06:50:33.864Z,91.99
2022-11-22T06:51:33.868Z,91.05
2022-11-22T06:52:33.841Z,90.39
2022-11-22T06:53:46.792Z,89.87
2022-11-22T06:54:34.811Z,89.62
2022-11-22T06:55:50.039Z,89.46
2022-11-22T06:56:34.952Z,89.11
2022-11-22T06:57:33.779Z,89.01
2022-11-22T06:58:33.779Z,88.59
2022-11-22T06:59:33.762Z,88.39
2022-11-22T07:00:33.774Z,88.39
2022-11-22T07:01:33.832Z,88.28
2022-11-22T07:02:33.780Z,88.28
2022-11-22T07:03:33.716Z,88.39
2022-11-22T07:04:33.703Z,88.28
2022-11-22T07:05:33.695Z,88.28
2022-11-22T07:06:33.717Z,88.07
2022-11-22T07:07:33.729Z,87.97
2022-11-22T07:08:33.665Z,87.83
2022-11-22T07:09:33.659Z,87.83
2022-11-22T07:10:33.643Z,87.62
2022-11-22T07:11:33.645Z,87.21
2022-11-22T07:12:33.613Z,86.86
2022-11-22T07:13:33.622Z,86.44
2022-11-22T07:14:33.592Z,86.13
2022-11-22T07:15:33.594Z,85.83
2022-11-22T07:16:33.583Z,85.93
2022-11-22T07:17:33.563Z,86.13
2022-11-22T07:18:33.672Z,86.24
2022-11-22T07:19:33.644Z,86.24
2022-11-22T07:20:33.531Z,86.34
2022-11-22T07:21:33.523Z,86.24
2022-11-22T07:22:33.514Z,86.55
2022-11-22T07:23:33.502Z,86.76
2022-11-22T07:24:33.484Z,86.76
2022-11-22T07:25:33.510Z,86.69
2022-11-22T07:26:33.474Z,86.69
2022-11-22T07:27:33.483Z,86.69
2022-11-22T07:28:33.485Z,86.69
2022-11-22T07:29:33.452Z,86.34
2022-11-22T07:30:33.415Z,86.13
2022-11-22T07:31:33.427Z,86.03
2022-11-22T07:32:33.414Z,85.93
2022-11-22T07:33:33.392Z,85.52
2022-11-22T07:34:33.377Z,85.00
2022-11-22T07:35:33.365Z,84.55
2022-11-22T07:36:33.364Z,84.55
2022-11-22T07:37:33.346Z,84.44
2022-11-22T07:38:33.334Z,84.03
2022-11-22T07:39:33.325Z,83.83
2022-11-22T07:40:33.305Z,83.62
2022-11-22T07:41:33.436Z,83.62
2022-11-22T07:42:33.284Z,83.41
2022-11-22T07:43:33.285Z,83.72
2022-11-22T07:44:33.272Z,83.62
2022-11-22T07:45:33.256Z,83.51
2022-11-22T07:46:33.303Z,83.10
2022-11-22T07:47:33.238Z,83.00
2022-11-22T07:48:33.225Z,82.86
2022-11-22T07:49:33.318Z,83.06
2022-11-22T07:50:33.205Z,82.75
2022-11-22T07:51:33.205Z,82.45
2022-11-22T07:52:33.283Z,82.34
2022-11-22T07:53:33.337Z,82.75
2022-11-22T07:54:33.159Z,81.93
2022-11-22T07:55:33.167Z,81.93
2022-11-22T07:56:33.147Z,81.93
2022-11-22T07:57:33.126Z,82.03
2022-11-22T07:58:33.116Z,81.93
2022-11-22T07:59:33.107Z,81.93
2022-11-22T08:00:33.128Z,81.21
2022-11-22T08:01:33.149Z,80.55
2022-11-22T08:02:33.268Z,80.76
2022-11-22T08:03:33.060Z,80.79
2022-11-22T08:04:33.067Z,80.79
2022-11-22T08:05:33.041Z,81.10
2022-11-22T08:06:33.028Z,81.41
2022-11-22T08:07:33.122Z,81.62
2022-11-22T08:08:33.026Z,81.31
2022-11-22T08:09:33.035Z,81.10
2022-11-22T08:10:32.989Z,81.41
2022-11-22T08:11:32.978Z,81.31
2022-11-22T08:12:32.967Z,81.10
2022-11-22T08:13:33.010Z,81.31
2022-11-22T08:14:33.084Z,81.72
2022-11-22T08:15:32.922Z,81.72
2022-11-22T08:16:32.929Z,81.21
2022-11-22T08:17:32.948Z,81.31
2022-11-22T08:18:32.900Z,81.10
2022-11-22T08:19:32.994Z,80.65
2022-11-22T08:20:32.889Z,80.34
2022-11-22T08:21:32.870Z,80.04
2022-11-22T08:22:32.870Z,80.24
2022-11-22T08:23:32.850Z,80.14
2022-11-22T08:24:32.851Z,79.93
2022-11-22T08:25:32.833Z,79.83
2022-11-22T08:26:32.814Z,79.62
2022-11-22T08:27:32.804Z,79.58
2022-11-22T08:28:32.797Z,79.38
2022-11-22T08:29:32.827Z,79.38
2022-11-22T08:30:32.771Z,79.17
2022-11-22T08:31:32.829Z,79.38
2022-11-22T08:32:32.762Z,79.27
2022-11-22T08:33:32.734Z,79.58
2022-11-22T08:34:32.722Z,79.27
2022-11-22T08:35:32.711Z,78.76
2022-11-22T08:36:32.706Z,79.07
2022-11-22T08:37:32.693Z,79.03
2022-11-22T08:38:32.685Z,79.24
2022-11-22T08:39:32.663Z,78.72
2022-11-22T08:40:36.698Z,78.72
2022-11-22T08:41:33.651Z,78.38
2022-11-22T08:42:32.644Z,78.28
2022-11-22T08:43:32.654Z,77.86
2022-11-22T08:44:32.622Z,77.66
2022-11-22T08:45:32.600Z,77.86
2022-11-22T08:46:32.606Z,77.76
2022-11-22T08:47:32.603Z,77.45
2022-11-22T08:48:32.572Z,77.51
2022-11-22T08:49:32.920Z,77.93
2022-11-22T08:50:32.554Z,77.83
2022-11-22T08:51:32.542Z,77.11
2022-11-22T08:52:32.534Z,77.21
2022-11-22T08:53:32.517Z,77.00
2022-11-22T08:54:37.501Z,76.90
2022-11-22T08:55:33.493Z,77.42
2022-11-22T08:56:32.483Z,77.31
2022-11-22T08:57:32.474Z,76.70
2022-11-22T08:58:32.468Z,76.90
2022-11-22T08:59:33.197Z,77.21
2022-11-22T09:00:33.651Z,77.11
2022-11-22T09:01:32.491Z,77.42
2022-11-22T09:02:32.436Z,77.31
2022-11-22T09:03:32.396Z,76.59
2022-11-22T09:04:32.435Z,76.49
2022-11-22T09:05:32.641Z,76.90
2022-11-22T09:08:36.504Z,77.00
2022-11-22T09:09:43.495Z,77.42
2022-11-22T09:10:33.337Z,77.31
2022-11-22T09:11:32.317Z,77.00
2022-11-22T09:12:32.317Z,76.59
2022-11-22T09:13:32.287Z,76.49
2022-11-22T09:14:32.285Z,76.49
2022-11-22T09:15:32.270Z,77.11
2022-11-22T09:16:32.441Z,76.76
2022-11-22T09:17:32.259Z,75.84
2022-11-22T09:18:32.227Z,76.66
2022-11-22T09:19:32.519Z,76.49
2022-11-22T09:20:32.238Z,76.45
2022-11-22T09:21:32.199Z,75.52
2022-11-22T09:22:32.210Z,75.52
2022-11-22T09:23:32.180Z,74.80
2022-11-22T09:24:32.171Z,74.87
2022-11-22T09:25:32.178Z,74.91
2022-11-22T09:26:32.291Z,75.12
2022-11-22T09:27:32.131Z,75.63
2022-11-22T09:28:32.356Z,75.01
2022-11-22T09:29:32.447Z,75.22
2022-11-22T09:30:32.100Z,75.63
2022-11-22T09:31:32.090Z,76.35
2022-11-22T09:32:33.800Z,76.14
2022-11-22T09:33:32.080Z,76.14
2022-11-22T09:34:32.071Z,76.14
2022-11-22T09:35:32.051Z,75.52
2022-11-22T09:36:32.040Z,75.94
2022-11-22T09:37:32.037Z,75.73
2022-11-22T09:38:32.030Z,75.84
2022-11-22T09:39:32.112Z,75.42
2022-11-22T09:40:32.020Z,75.12
2022-11-22T09:41:31.983Z,75.22
2022-11-22T09:42:31.980Z,74.70
2022-11-22T09:43:31.980Z,75.01
2022-11-22T09:44:31.962Z,75.01
2022-11-22T09:45:31.933Z,74.91
2022-11-22T09:46:31.931Z,74.87
2022-11-22T09:47:31.925Z,74.67
2022-11-22T09:48:31.913Z,74.87
2022-11-22T09:49:32.143Z,74.57
2022-11-22T09:50:31.882Z,74.67
2022-11-22T09:51:31.863Z,74.98
2022-11-22T09:52:31.883Z,75.08
2022-11-22T09:53:31.884Z,75.49
2022-11-22T09:54:31.835Z,75.08
2022-11-22T09:55:31.966Z,75.18
2022-11-22T09:56:31.824Z,75.29
2022-11-22T09:57:31.806Z,75.59
2022-11-22T09:58:31.805Z,75.59
2022-11-22T09:59:32.188Z,76.01
2022-11-22T10:00:31.841Z,75.80
2022-11-22T10:01:31.868Z,75.80
2022-11-22T10:02:43.542Z,75.70
2022-11-22T10:03:32.745Z,76.01
2022-11-22T10:04:31.745Z,76.01
2022-11-22T10:05:31.948Z,75.70
2022-11-22T10:06:31.715Z,75.49
2022-11-22T10:07:31.773Z,75.56
2022-11-22T10:08:31.698Z,75.04
2022-11-22T10:09:32.010Z,75.25
2022-11-22T10:10:31.671Z,75.56
2022-11-22T10:11:36.171Z,75.35
2022-11-22T10:12:32.637Z,75.97
2022-11-22T10:13:31.668Z,76.28
2022-11-22T10:14:31.626Z,76.07
2022-11-22T10:15:31.625Z,75.35
2022-11-22T10:16:31.599Z,75.25
2022-11-22T10:17:31.592Z,75.25
2022-11-22T10:18:31.601Z,75.67
2022-11-22T10:19:31.785Z,75.21
2022-11-22T10:20:31.578Z,75.83
2022-11-22T10:21:31.551Z,75.73
2022-11-22T10:22:31.528Z,75.01
2022-11-22T10:23:31.701Z,75.29
2022-11-22T10:24:31.535Z,74.98
2022-11-22T10:25:31.489Z,73.61
2022-11-22T10:26:31.501Z,73.64
2022-11-22T10:27:31.471Z,73.61
2022-11-22T10:28:31.473Z,73.30
2022-11-22T10:29:31.756Z,73.27
2022-11-22T10:30:31.440Z,73.36
2022-11-22T10:31:31.443Z,73.27
2022-11-22T10:32:31.422Z,73.40
2022-11-22T10:33:31.422Z,72.99
2022-11-22T10:34:31.402Z,73.64
2022-11-22T10:35:31.391Z,73.85
2022-11-22T10:36:31.372Z,74.26
2022-11-22T10:37:31.371Z,74.02
2022-11-22T10:38:31.362Z,73.81
2022-11-22T10:39:34.531Z,73.91
2022-11-22T10:40:31.323Z,73.91
2022-11-22T10:41:31.342Z,73.91
2022-11-22T10:42:31.306Z,73.98
2022-11-22T10:43:31.345Z,73.40
2022-11-22T10:44:31.284Z,73.50
2022-11-22T10:45:31.274Z,73.71
2022-11-22T10:46:31.265Z,73.30
2022-11-22T10:47:34.409Z,73.71
2022-11-22T10:48:31.263Z,73.91
2022-11-22T10:49:31.430Z,73.71
2022-11-22T10:50:31.216Z,73.30
2022-11-22T10:51:31.208Z,73.68
2022-11-22T10:52:31.202Z,74.08
2022-11-22T10:53:31.218Z,73.02
2022-11-22T10:54:31.175Z,73.06
2022-11-22T10:55:31.168Z,73.27
2022-11-22T10:56:31.148Z,73.27
2022-11-22T10:57:31.138Z,73.27
2022-11-22T10:58:31.138Z,72.61
2022-11-22T10:59:31.368Z,72.41
2022-11-22T11:00:31.121Z,73.13
2022-11-22T11:01:31.163Z,72.89
2022-11-22T11:02:31.090Z,72.10
2022-11-22T11:03:31.089Z,72.61
2022-11-22T11:04:31.059Z,73.02
2022-11-22T11:05:31.058Z,72.31
2022-11-22T11:06:49.874Z,71.80
2022-11-22T11:07:32.092Z,72.10
2022-11-22T11:08:54.192Z,71.80
2022-11-22T11:10:34.537Z,71.83
2022-11-22T11:11:31.043Z,71.72
2022-11-22T11:12:30.962Z,71.28
2022-11-22T11:13:30.993Z,72.00
2022-11-22T11:14:31.275Z,72.34
2022-11-22T11:15:30.939Z,72.65
2022-11-22T11:16:30.932Z,72.61
2022-11-22T11:17:30.924Z,72.03
2022-11-22T11:18:30.941Z,72.65
2022-11-22T11:19:30.903Z,73.06
2022-11-22T11:20:30.883Z,72.55
2022-11-22T11:21:30.875Z,71.93
2022-11-22T11:22:58.485Z,71.83
2022-11-22T11:23:31.875Z,71.76
2022-11-22T11:24:31.123Z,72.34
2022-11-22T11:25:30.846Z,72.55
2022-11-22T11:26:30.817Z,71.97
2022-11-22T11:27:30.806Z,72.38
2022-11-22T11:28:30.807Z,72.24
2022-11-22T11:29:35.987Z,72.48
2022-11-22T11:30:31.776Z,72.99
2022-11-22T11:31:30.767Z,73.68
2022-11-22T11:32:30.758Z,73.81
2022-11-22T11:33:30.747Z,72.58
2022-11-22T11:34:31.007Z,72.89
2022-11-22T11:35:30.777Z,73.71
2022-11-22T11:36:30.707Z,73.19
2022-11-22T11:37:30.699Z,73.19
2022-11-22T11:38:30.687Z,73.30
2022-11-22T11:39:30.865Z,73.13
2022-11-22T11:40:30.660Z,73.81
2022-11-22T11:41:30.700Z,73.81
2022-11-22T11:42:30.642Z,73.50
2022-11-22T11:43:30.643Z,73.40
2022-11-22T11:44:30.809Z,72.68
2022-11-22T11:45:30.608Z,72.89
2022-11-22T11:46:30.599Z,72.68
2022-11-22T11:47:30.589Z,73.19
2022-11-22T11:48:30.572Z,73.40
2022-11-22T11:49:30.874Z,73.40
2022-11-22T11:50:30.549Z,73.68
2022-11-22T11:51:30.542Z,73.36
2022-11-22T11:52:30.533Z,73.57
2022-11-22T11:53:30.529Z,72.96
2022-11-22T11:54:30.513Z,72.55
2022-11-22T11:55:30.503Z,72.75
2022-11-22T11:56:30.481Z,73.36
2022-11-22T11:57:30.472Z,73.27
2022-11-22T11:58:30.462Z,73.16
2022-11-22T11:59:30.592Z,72.85
2022-11-22T12:00:30.447Z,72.75
2022-11-22T12:01:34.418Z,72.96
2022-11-22T12:02:33.034Z,73.27
2022-11-22T12:03:30.416Z,73.16
2022-11-22T12:04:30.719Z,73.16
2022-11-22T12:05:30.393Z,72.65
2022-11-22T12:06:30.373Z,72.75
2022-11-22T12:07:30.422Z,72.96
2022-11-22T12:08:30.367Z,73.16
2022-11-22T12:09:30.355Z,72.96
2022-11-22T12:10:30.336Z,72.75
2022-11-22T12:11:30.326Z,73.06
2022-11-22T12:12:30.314Z,73.36
2022-11-22T12:13:30.308Z,73.78
2022-11-22T12:14:55.611Z,73.36
2022-11-22T12:15:31.284Z,73.98
2022-11-22T12:16:30.271Z,73.98
2022-11-22T12:17:30.273Z,73.36
2022-11-22T12:18:30.247Z,72.96
2022-11-22T12:19:30.256Z,73.16
2022-11-22T12:20:30.242Z,73.57
2022-11-22T12:21:30.220Z,73.16
2022-11-22T12:22:48.834Z,73.40
2022-11-22T12:23:31.215Z,73.61
2022-11-22T12:25:09.219Z,73.40
2022-11-22T12:25:32.897Z,74.02
2022-11-22T12:26:31.158Z,73.71
2022-11-22T12:27:30.168Z,73.50
2022-11-22T12:28:30.146Z,74.22
2022-11-22T12:29:30.180Z,73.81
2022-11-22T12:30:30.139Z,73.71
2022-11-22T12:31:30.107Z,73.91
2022-11-22T12:32:30.107Z,73.71
2022-11-22T12:33:30.087Z,73.61
2022-11-22T12:34:30.418Z,73.81
2022-11-22T12:35:30.079Z,74.02
2022-11-22T12:36:32.829Z,74.02
2022-11-22T12:37:30.031Z,74.22
2022-11-22T12:38:30.034Z,74.12
2022-11-22T12:39:30.031Z,74.29
2022-11-22T12:40:30.023Z,74.40
2022-11-22T12:41:29.999Z,74.49
2022-11-22T12:42:29.983Z,74.91
2022-11-22T12:43:29.972Z,74.49
2022-11-22T12:44:30.359Z,74.60
2022-11-22T12:45:29.950Z,74.60
2022-11-22T12:46:29.952Z,74.19
2022-11-22T12:47:29.933Z,74.49
2022-11-22T12:48:30.026Z,74.40
2022-11-22T12:49:29.916Z,73.98
2022-11-22T12:50:29.911Z,74.19
2022-11-22T12:51:29.883Z,73.98
2022-11-22T12:52:29.886Z,73.27
2022-11-22T12:53:29.854Z,72.72
2022-11-22T12:54:30.280Z,71.90
2022-11-22T12:55:29.843Z,71.90